GLO1246 SBRB-SBEG
Flight info
| Callsign | GLO1246 |
|---|---|
| Flight time | N/A |
| Altitude | 37000 |
| Route | PUNPA DCT MASON UZ62 ILKOD |
| Aircraft | B38M/M-DFGHIJ4J7KLORWXY/LB1 |
Departure
| Time | 2026-04-12 23:41 |
|---|---|
| Airport | Rio Branco-Plácido de Castro International Airport (SBRB) |
Arrival
| Time | N/A |
|---|---|
| Airport | Eduardo Gomes International Airport (SBEG) |
| Time | Latitude | Longitude | Altitude | Speed | Heading |
|---|---|---|---|---|---|
| 2026-04-12 23:14 | -9.86693 | -67.89647 | 638 ft | 0 kts | 329° |
| 2026-04-12 23:29 | -9.86706 | -67.89638 | 642 ft | 2 kts | 324° |
| 2026-04-12 23:29 | -9.86719 | -67.89628 | 641 ft | 2 kts | 311° |
| 2026-04-12 23:30 | -9.86725 | -67.89613 | 640 ft | 2 kts | 251° |
| 2026-04-12 23:30 | -9.86721 | -67.89606 | 646 ft | 0 kts | 239° |
| 2026-04-12 23:36 | -9.86724 | -67.89610 | 646 ft | 2 kts | 238° |
| 2026-04-12 23:36 | -9.86748 | -67.89647 | 639 ft | 11 kts | 237° |
| 2026-04-12 23:37 | -9.86804 | -67.89733 | 638 ft | 16 kts | 236° |
| 2026-04-12 23:37 | -9.86897 | -67.89783 | 640 ft | 17 kts | 194° |
| 2026-04-12 23:37 | -9.87021 | -67.89814 | 638 ft | 19 kts | 193° |
| 2026-04-12 23:37 | -9.87144 | -67.89841 | 635 ft | 15 kts | 194° |
| 2026-04-12 23:38 | -9.87233 | -67.89905 | 637 ft | 17 kts | 236° |
| 2026-04-12 23:38 | -9.87299 | -67.90008 | 639 ft | 18 kts | 238° |
| 2026-04-12 23:38 | -9.87371 | -67.90120 | 638 ft | 20 kts | 237° |
| 2026-04-12 23:38 | -9.87386 | -67.90143 | 633 ft | 2 kts | 232° |
| 2026-04-12 23:39 | -9.87412 | -67.90160 | 633 ft | 8 kts | 199° |
| 2026-04-12 23:39 | -9.87447 | -67.90198 | 633 ft | 6 kts | 290° |
| 2026-04-12 23:39 | -9.87421 | -67.90199 | 634 ft | 4 kts | 53° |
| 2026-04-12 23:39 | -9.87417 | -67.90192 | 633 ft | 0 kts | 57° |
| 2026-04-12 23:40 | -9.87416 | -67.90191 | 633 ft | 2 kts | 57° |
| 2026-04-12 23:40 | -9.87284 | -67.89992 | 634 ft | 75 kts | 57° |
| 2026-04-12 23:40 | -9.86860 | -67.89325 | 640 ft | 148 kts | 57° |
| 2026-04-12 23:40 | -9.86182 | -67.88293 | 823 ft | 194 kts | 56° |
| 2026-04-12 23:41 | -9.85454 | -67.87136 | 1743 ft | 198 kts | 56° |
| 2026-04-12 23:41 | -9.84655 | -67.85889 | 2375 ft | 221 kts | 56° |
| 2026-04-12 23:41 | -9.83776 | -67.84517 | 3072 ft | 238 kts | 56° |
| 2026-04-12 23:41 | -9.82729 | -67.83197 | 3952 ft | 244 kts | 48° |
| 2026-04-12 23:42 | -9.81573 | -67.81863 | 4776 ft | 259 kts | 48° |
| 2026-04-12 23:42 | -9.80347 | -67.80437 | 5491 ft | 274 kts | 49° |
| 2026-04-12 23:42 | -9.79089 | -67.78967 | 6468 ft | 277 kts | 49° |
| 2026-04-12 23:43 | -9.77129 | -67.76673 | 7858 ft | 283 kts | 49° |